Flight Track Log - Related Links

Times and Time Zones

All times are in EDT time to prevent confusion due to time zone crossing. See the C-GMLF flight status page for this flight to view local times or setup timezone preferences in your user account.

Time Position Orientation Groundspeed Altitude Reporting Facility
EDT Latitude Longitude Course Direction KTS MPH feet Rate Location/Type
Wed 07:59:11 AM 48.5000 -70.9000 90° East 130 150 4,000  Level Montreal Center
Wed 08:00:11 AM 48.5167 -70.8167 73° East 150 173 5,300 1,300 Climbing Montreal Center
Wed 08:01:11 AM 48.5000 -70.7333 107° East 150 173 6,600 1,250 Climbing Montreal Center
Wed 08:02:00 AM 48.5334 -70.3727 90° East  Level FlightAware Approximate
Wed 08:02:11 AM 48.5000 -70.6833 90° East 160 184 7,800  Level Montreal Center
Wed 08:03:00 AM 48.5334 -70.2594 90° East  Level FlightAware Approximate
Wed 08:03:11 AM 48.5167 -70.6167 69° East 160 184 9,000  Level Montreal Center
Wed 08:04:00 AM 48.5334 -70.1461 90° East  Level FlightAware Approximate
Wed 08:04:11 AM 48.5167 -70.5333 90° East 170 196 10,200  Level Montreal Center
Wed 08:05:11 AM 48.5167 -70.4667 90° East 170 196 11,500 1,200 Climbing Montreal Center
Wed 08:06:11 AM 48.5000 -70.3833 107° East 180 207 12,600 1,100 Climbing Montreal Center
Wed 08:07:11 AM 48.5167 -70.3000 73° East 180 207 13,700 1,150 Climbing Montreal Center
Wed 08:08:11 AM 48.5167 -70.2333 90° East 180 207 14,900 1,100 Climbing Montreal Center
Wed 08:09:11 AM 48.5333 -70.1500 73° East 190 219 15,900 1,050 Climbing Montreal Center
Wed 08:10:11 AM 48.5167 -70.0833 111° Southeast 190 219 17,000 950 Climbing Montreal Center
Wed 08:11:11 AM 48.5167 -70.0000 90° East 200 230 17,800 850 Climbing Montreal Center
Wed 08:12:11 AM 48.5333 -69.9167 73° East 200 230 18,700 900 Climbing Montreal Center
Wed 08:13:11 AM 48.5333 -69.8167 90° East 200 230 19,600 800 Climbing Montreal Center
Wed 08:14:11 AM 48.5167 -69.7500 111° Southeast 210 242 20,300 700 Climbing Montreal Center
Wed 08:15:11 AM 48.5333 -69.6500 76° East 210 242 21,000 700 Climbing Montreal Center
Wed 08:16:11 AM 48.5333 -69.5667 90° East 210 242 21,700 700 Climbing Montreal Center
Wed 08:17:11 AM 48.5333 -69.4667 90° East 210 242 22,400 650 Climbing Montreal Center
Wed 08:18:11 AM 48.5333 -69.3833 90° East 220 253 23,000 600 Climbing Montreal Center
Wed 08:19:11 AM 48.5500 -69.2833 76° East 220 253 23,600 600 Climbing Montreal Center
Wed 08:20:11 AM 48.5333 -69.1833 104° East 230 265 24,200 500 Climbing Montreal Center
Wed 08:21:11 AM 48.5333 -69.1000 90° East 230 265 24,600 400 Climbing Montreal Center
Wed 08:22:11 AM 48.5500 -69.0000 76° East 230 265 25,000 200 Climbing Montreal Center
Wed 08:23:11 AM 48.5333 -68.9000 104° East 240 276 25,000  Level Montreal Center
Wed 08:24:11 AM 48.5500 -68.7833 78° East 260 299 25,000  Level Montreal Center
Wed 08:25:11 AM 48.5333 -68.6667 102° East 270 311 25,000  Level Montreal Center
Wed 08:26:11 AM 48.5500 -68.5500 78° East 270 311 25,000  Level Montreal Center
Wed 08:27:11 AM 48.5500 -68.4500 90° East 270 311 25,000  Level Montreal Center
Wed 08:28:11 AM 48.5500 -68.3167 90° East 280 322 25,000  Level Montreal Center
Wed 08:29:11 AM 48.5500 -68.2167 90° East 280 322 25,000  Level Montreal Center
Wed 08:30:11 AM 48.5500 -68.0833 90° East 280 322 25,000  Level Montreal Center
Wed 08:31:11 AM 48.5667 -67.9833 76° East 280 322 25,000  Level Montreal Center
Wed 08:32:11 AM 48.5500 -67.8500 101° East 280 322 25,000  Level Montreal Center
Wed 08:33:11 AM 48.5500 -67.7333 90° East 280 322 25,000  Level Montreal Center
Wed 08:34:11 AM 48.5500 -67.6333 90° East 270 311 25,000  Level Montreal Center
Wed 08:35:11 AM 48.5500 -67.5000 90° East 280 322 25,000  Level Montreal Center
Wed 08:36:11 AM 48.5500 -67.4000 90° East 270 311 25,000  Level Montreal Center
Wed 08:36:54 AM 48.5500 -67.3333 90° East 280 322 25,000  Level Moncton Center
Wed 08:37:54 AM 48.5500 -67.2333 90° East 280 322 25,000  Level Moncton Center
Wed 08:38:54 AM 48.5500 -67.1000 90° East 270 311 25,000  Level Moncton Center
Wed 08:39:54 AM 48.5500 -67.0000 90° East 280 322 25,000  Level Moncton Center
Wed 08:40:54 AM 48.5500 -66.8833 90° East 280 322 25,000  Level Moncton Center
Wed 08:41:54 AM 48.5500 -66.7500 90° East 280 322 25,000  Level Moncton Center
Wed 08:42:54 AM 48.5500 -66.6500 90° East 270 311 25,000  Level Moncton Center
Wed 08:43:54 AM 48.5500 -66.5167 90° East 280 322 25,000  Level Moncton Center
Wed 08:44:54 AM 48.5500 -66.4000 90° East 280 322 25,000  Level Moncton Center
Wed 08:45:54 AM 48.5333 -66.3000 104° East 280 322 25,000  Level Moncton Center
Wed 08:46:54 AM 48.5333 -66.1667 90° East 280 322 25,000  Level Moncton Center
Wed 08:47:54 AM 48.5500 -66.0333 79° East 280 322 25,000  Level Moncton Center
Wed 08:48:54 AM 48.5500 -65.9333 90° East 280 322 25,000  Level Moncton Center
Wed 08:49:54 AM 48.5500 -65.8167 90° East 280 322 25,000  Level Moncton Center
Wed 08:50:54 AM 48.5333 -65.7167 104° East 280 322 25,000  Level Moncton Center
Wed 08:51:54 AM 48.5333 -65.5833 90° East 280 322 25,000  Level Moncton Center
Wed 08:52:54 AM 48.5333 -65.4667 90° East 280 322 25,000  Level Moncton Center
Wed 08:53:54 AM 48.5333 -65.3333 90° East 280 322 25,000  Level Moncton Center
Wed 08:54:54 AM 48.5333 -65.2333 90° East 280 322 25,000  Level Moncton Center
Wed 08:55:54 AM 48.5333 -65.1000 90° East 280 322 25,000  Level Moncton Center
Wed 08:56:54 AM 48.5167 -64.9833 102° East 290 334 25,000  Level Moncton Center
Wed 08:57:54 AM 48.5167 -64.8833 90° East 290 334 25,000  Level Moncton Center
Wed 08:58:54 AM 48.5167 -64.7500 90° East 290 334 25,000  Level Moncton Center
Wed 08:59:54 AM 48.5167 -64.6167 90° East 290 334 25,000  Level Moncton Center
Wed 09:00:54 AM 48.5167 -64.5000 90° East 290 334 25,000  Level Moncton Center
Wed 09:01:54 AM 48.5000 -64.3667 101° East 290 334 25,000  Level Moncton Center
Wed 09:02:54 AM 48.5000 -64.2500 90° East 290 334 25,000  Level Moncton Center
Wed 09:03:54 AM 48.5000 -64.1167 90° East 290 334 25,000  Level Moncton Center
Wed 09:04:54 AM 48.5000 -64.0167 90° East 290 334 25,000  Level Moncton Center
Wed 09:05:54 AM 48.5000 -63.9000 90° East 300 345 25,000  Level Moncton Center
Wed 09:06:54 AM 48.5000 -63.7667 90° East 300 345 25,000  Level Moncton Center
Wed 09:07:54 AM 48.4833 -63.6333 101° East 300 345 25,000  Level Moncton Center
Wed 09:08:54 AM 48.4833 -63.5167 90° East 300 345 25,000  Level Moncton Center
Wed 09:09:54 AM 48.4833 -63.3833 90° East 290 334 25,000  Level Moncton Center
Wed 09:10:54 AM 48.4833 -63.2667 90° East 300 345 25,000  Level Moncton Center
Wed 09:11:54 AM 48.4833 -63.1333 90° East 300 345 25,000  Level Moncton Center
Wed 09:12:54 AM 48.4667 -63.0167 102° East 290 334 25,000  Level Moncton Center
Wed 09:13:54 AM 48.4667 -62.8833 90° East 300 345 25,000  Level Moncton Center
Wed 09:14:54 AM 48.4667 -62.7833 90° East 290 334 25,000  Level Moncton Center
Wed 09:15:54 AM 48.4500 -62.6500 101° East 290 334 25,000  Level Moncton Center
Wed 09:16:54 AM 48.4500 -62.5333 90° East 290 334 25,000  Level Moncton Center
Wed 09:17:54 AM 48.4333 -62.4000 101° East 300 345 25,000  Level Moncton Center
Wed 09:18:54 AM 48.4333 -62.2833 90° East 280 322 25,000  Level Moncton Center
Wed 09:19:54 AM 48.4333 -62.1500 90° East 290 334 25,000  Level Moncton Center
Wed 09:20:54 AM 48.4333 -62.0333 90° East 290 334 25,000  Level Moncton Center
Wed 09:21:54 AM 48.4333 -61.9000 90° East 290 334 25,000  Level Moncton Center
Wed 09:22:54 AM 48.4000 -61.8000 117° Southeast 290 334 25,000  Level Moncton Center
Wed 09:23:54 AM 48.4000 -61.6667 90° East 290 334 25,000  Level Moncton Center
Wed 09:24:54 AM 48.4000 -61.5500 90° East 290 334 25,000  Level Moncton Center
Wed 09:25:54 AM 48.4000 -61.4167 90° East 290 334 25,000  Level Moncton Center
Wed 09:26:54 AM 48.4000 -61.3000 90° East 290 334 25,000  Level Moncton Center
Wed 09:27:54 AM 48.3833 -61.2000 104° East 290 334 25,000  Level Moncton Center
Wed 09:28:54 AM 48.3667 -61.0667 101° East 290 334 25,000  Level Moncton Center
Wed 09:29:54 AM 48.3667 -60.9500 90° East 290 334 25,000  Level Moncton Center
Wed 09:30:54 AM 48.3667 -60.8167 90° East 290 334 25,000  Level Moncton Center
Wed 09:31:54 AM 48.3667 -60.7000 90° East 290 334 25,000  Level Moncton Center
Wed 09:32:54 AM 48.3333 -60.6000 117° Southeast 290 334 25,000  Level Moncton Center
Wed 09:33:54 AM 48.3333 -60.4667 90° East 280 322 25,000  Level Moncton Center
Wed 09:34:54 AM 48.3333 -60.3333 90° East 280 322 25,000  Level Moncton Center
Wed 09:35:54 AM 48.3333 -60.2167 90° East 290 334 25,000  Level Moncton Center
Wed 09:36:54 AM 48.3167 -60.1167 104° East 280 322 25,000  Level Moncton Center
Wed 09:37:54 AM 48.3167 -59.9833 90° East 290 334 25,000  Level Moncton Center
Wed 09:38:54 AM 48.3000 -59.8667 102° East 280 322 25,000  Level Moncton Center
Wed 09:39:54 AM 48.3000 -59.7333 90° East 290 334 25,000  Level Moncton Center
Wed 09:40:54 AM 48.2833 -59.6333 104° East 290 334 25,000  Level Moncton Center
Wed 09:41:54 AM 48.2833 -59.5167 90° East 280 322 25,000  Level Moncton Center
Wed 09:42:54 AM 48.2833 -59.3833 90° East 280 322 25,000  Level Moncton Center
Wed 09:43:54 AM 48.2500 -59.2833 117° Southeast 290 334 25,000  Level Moncton Center
Wed 09:44:54 AM 48.2500 -59.1667 90° East 280 322 25,000  Level Moncton Center
Wed 09:45:54 AM 48.2500 -59.0333 90° East 280 322 25,000  Level Moncton Center
Wed 09:46:54 AM 48.2333 -58.9167 102° East 280 322 25,000  Level Moncton Center
Wed 09:47:54 AM 48.2333 -58.8167 90° East 280 322 25,000  Level Moncton Center
Wed 09:48:54 AM 48.2167 -58.6833 101° East 280 322 25,000  Level Moncton Center
Wed 09:49:54 AM 48.2000 -58.5833 104° East 280 322 25,000  Level Moncton Center
Wed 09:50:54 AM 48.2000 -58.4667 90° East 280 322 25,000  Level Moncton Center
Wed 09:51:54 AM 48.2000 -58.3333 90° East 280 322 25,000  Level Moncton Center
Wed 09:52:54 AM 48.1833 -58.2333 104° East 270 311 25,000  Level Moncton Center
Wed 09:53:54 AM 48.1833 -58.1167 90° East 270 311 25,000  Level Moncton Center
Wed 09:54:54 AM 48.1667 -58.0167 104° East 280 322 25,000  Level Moncton Center
Wed 09:55:54 AM 48.1500 -57.9000 102° East 280 322 25,000  Level Moncton Center
Wed 09:56:54 AM 48.1500 -57.8000 90° East 280 322 25,000  Level Moncton Center
Wed 09:57:54 AM 48.1333 -57.6667 101° East 280 322 25,000  Level Moncton Center
Wed 09:58:54 AM 48.1333 -57.5500 90° East 280 322 25,000  Level Moncton Center
Wed 09:59:54 AM 48.1000 -57.4167 110° East 280 322 25,000  Level Moncton Center
Wed 10:00:54 AM 48.1000 -57.3167 90° East 280 322 25,000  Level Moncton Center
Wed 10:01:54 AM 48.1000 -57.2000 90° East 280 322 25,000  Level Moncton Center
Wed 10:02:54 AM 48.0833 -57.1000 104° East 280 322 25,000  Level Moncton Center
Wed 10:03:54 AM 48.0833 -56.9667 90° East 270 311 25,000  Level Moncton Center
Wed 10:04:54 AM 48.0667 -56.8667 104° East 280 322 25,000  Level Moncton Center
Wed 10:05:54 AM 48.0500 -56.7500 102° East 270 311 25,000  Level Moncton Center
Wed 10:06:54 AM 48.0333 -56.6333 102° East 270 311 25,000  Level Moncton Center
Wed 10:07:54 AM 48.0333 -56.5333 90° East 270 311 25,000  Level Moncton Center
Wed 10:08:54 AM 48.0333 -56.4333 90° East 270 311 25,000  Level Moncton Center
Wed 10:09:54 AM 48.0167 -56.3000 101° East 270 311 25,000  Level Moncton Center
Wed 10:10:54 AM 48.0000 -56.2000 104° East 270 311 25,000  Level Moncton Center
Wed 10:11:54 AM 47.9833 -56.0833 102° East 270 311 25,000  Level Moncton Center
Wed 10:12:54 AM 47.9833 -55.9833 90° East 270 311 25,000  Level Moncton Center
Wed 10:13:54 AM 47.9667 -55.8667 102° East 270 311 25,000  Level Moncton Center
Wed 10:14:54 AM 47.9667 -55.7667 90° East 270 311 25,000  Level Moncton Center
Wed 10:15:54 AM 47.9500 -55.6333 101° East 270 311 25,000  Level Moncton Center
Wed 10:16:54 AM 47.9500 -55.5333 90° East 270 311 25,000  Level Moncton Center
Wed 10:17:54 AM 47.9167 -55.4167 113° Southeast 270 311 25,000  Level Moncton Center
Wed 10:18:54 AM 47.9167 -55.3167 90° East 270 311 25,000  Level Moncton Center
Wed 10:19:54 AM 47.9000 -55.2000 102° East 270 311 25,000  Level Moncton Center
Wed 10:20:54 AM 47.8833 -55.1000 104° East 270 311 25,000  Level Moncton Center
Wed 10:21:54 AM 47.8833 -54.9667 90° East 270 311 25,000  Level Moncton Center
Wed 10:22:54 AM 47.8500 -54.8833 121° Southeast 270 311 25,000  Level Moncton Center
Wed 10:23:54 AM 47.8500 -54.7500 90° East 270 311 25,000  Level Moncton Center
Wed 10:24:54 AM 47.8333 -54.6500 104° East 270 311 25,000  Level Moncton Center
Wed 10:25:54 AM 47.8333 -54.5500 90° East 270 311 25,000  Level Moncton Center
Wed 10:26:54 AM 47.8167 -54.4333 102° East 270 311 25,000  Level Moncton Center
Wed 10:27:54 AM 47.8167 -54.3333 90° East 270 311 25,000  Level Moncton Center
Wed 10:28:54 AM 47.7833 -54.2167 113° Southeast 270 311 25,000 -150 Level Moncton Center
Wed 10:29:54 AM 47.7667 -54.1167 104° East 270 311 24,700 -1,050 Descending Moncton Center
Wed 10:30:54 AM 47.7333 -54.0000 113° Southeast 280 322 22,900 -1,900 Descending Moncton Center
Wed 10:31:54 AM 47.7000 -53.8833 113° Southeast 300 345 20,900 -1,950 Descending Moncton Center
Wed 10:32:54 AM 47.6500 -53.7833 127° Southeast 290 334 19,000 -1,850 Descending Moncton Center
Wed 10:33:54 AM 47.6167 -53.6667 113° Southeast 290 334 17,200 -1,850 Descending Moncton Center
Wed 10:34:54 AM 47.5833 -53.5833 121° Southeast 280 322 15,300 -1,950 Descending Moncton Center
Wed 10:35:54 AM 47.5667 -53.4667 102° East 280 322 13,300 -1,900 Descending Moncton Center
Wed 10:36:54 AM 47.5500 -53.3667 104° East 270 311 11,500 -1,953 Descending Moncton Center
Wed 10:38:03 AM 47.5167 -53.2333 110° East 270 311 9,100 -1,953 Descending Gander Center
Wed 10:39:03 AM 47.5000 -53.1333 104° East 260 299 7,300 -1,850 Descending Gander Center
Wed 10:40:03 AM 47.5000 -53.0333 90° East 250 288 5,400 -1,950 Descending Gander Center
Wed 10:41:03 AM 47.4833 -52.9500 106° East 240 276 3,400 -1,500 Descending Gander Center
Wed 10:42:03 AM 47.4833 -52.8667 90° East 230 265 2,400 -500 Descending Gander Center
Wed 10:43:03 AM 47.4833 -52.7667 90° East 190 219 2,400 -200 Level Gander Center
Wed 10:44:03 AM 47.5167 -52.7167 45° Northeast 180 207 2,000 -450 Descending Gander Center
Wed 10:45:03 AM 47.5500 -52.6667 45° Northeast 170 196 1,500 -650 Descending Gander Center
Wed 10:46:03 AM 47.5833 -52.6833 341° North 160 184 700 -550 Descending Gander Center
Wed 10:47:03 AM 47.6000 -52.7000 326° Northwest 90 104 400 -300 Descending Gander Center

Login

Don't have an account? Register now (free) for customized features, flight alerts, and more!